Date,TemperatureHighF,TemperatureAvgF,TemperatureLowF,DewpointHighF,DewpointAvgF,DewpointLowF,HumidityHigh,HumidityAvg,HumidityLow,PressureMaxIn,PressureMinIn,WindSpeedMaxMPH,WindSpeedAvgMPH,GustSpeedMaxMPH,PrecipitationSumIn
2013-1-1,30.0,20.5,12.0,29.0,14.3,4.0,95,77,50,30.23,30.13,8,4,14,0.00
2013-1-2,31.0,19.4,10.0,15.0,9.0,3.0,76,64,46,30.24,30.12,7,4,16,0.00
2013-1-3,32.0,25.8,18.0,28.0,20.4,14.0,88,79,73,30.28,30.10,9,7,17,0.00
2013-1-4,37.0,24.7,13.0,23.0,17.3,8.0,83,74,54,30.27,30.14,15,9,29,0.00
2013-1-5,37.0,30.6,22.0,32.0,26.1,19.0,92,83,66,30.26,29.95,12,5,22,0.01
2013-1-6,36.0,29.6,21.0,33.0,24.9,18.0,90,82,68,30.34,29.91,13,7,22,0.01
2013-1-7,41.0,28.7,19.0,27.0,21.7,16.0,89,76,53,30.35,30.12,11,5,28,0.00
2013-1-8,43.0,34.1,26.0,30.0,26.8,23.0,88,75,58,30.18,30.02,8,3,17,0.00
2013-1-9,49.0,40.0,29.0,32.0,27.4,21.0,82,62,35,30.49,30.00,19,8,31,0.00
2013-1-10,43.0,34.2,24.0,39.0,26.7,20.0,94,75,49,30.51,29.91,11,4,18,0.48
2013-1-11,53.0,49.5,41.0,52.0,47.2,40.0,96,91,85,29.91,29.66,10,6,20,0.77
2013-1-12,53.0,43.8,31.0,48.0,37.1,21.0,91,77,55,29.97,29.70,12,7,23,0.01
2013-1-13,34.0,25.4,15.0,33.0,21.8,6.0,95,86,55,30.23,29.87,11,6,24,0.01
2013-1-14,28.0,18.5,12.0,22.0,11.1,3.0,91,73,51,30.47,30.24,8,3,17,0.00
2013-1-15,32.0,21.5,12.0,21.0,13.0,9.0,89,71,42,30.46,30.14,4,1,7,0.00
2013-1-16,35.0,27.2,15.0,27.0,19.0,3.0,88,71,55,30.14,29.84,14,6,24,0.00
2013-1-17,38.0,29.0,21.0,36.0,19.2,8.0,94,67,40,30.41,30.06,8,4,18,0.00
2013-1-18,43.0,31.7,17.0,29.0,22.3,7.0,89,69,55,30.44,29.91,14,7,27,0.03
2013-1-19,48.0,41.3,28.0,37.0,30.7,11.0,72,66,45,29.93,29.71,21,10,37,0.01
2013-1-20,27.0,18.8,13.0,18.0,9.5,2.0,88,67,51,30.31,29.90,17,8,35,0.00
2013-1-21,15.0,10.7,6.0,11.0,2.3,-4.0,88,69,52,30.31,30.16,12,9,26,0.00
2013-1-22,15.0,8.6,0.0,12.0,2.0,-4.0,93,75,51,30.42,30.31,10,6,18,0.00
2013-1-23,24.0,15.6,10.0,22.0,7.7,-1.0,100,71,55,30.38,30.14,10,6,24,0.00
2013-1-24,21.0,17.0,12.0,17.0,9.2,1.0,94,73,43,30.65,30.35,8,4,17,0.00
2013-1-25,30.0,22.8,18.0,27.0,15.7,7.0,87,74,56,30.42,30.00,11,5,18,0.00
2013-1-26,31.0,23.4,13.0,27.0,15.2,8.0,94,72,45,30.41,30.18,6,3,15,0.01
2013-1-27,36.0,29.1,25.0,34.0,23.4,12.0,94,79,55,30.40,29.93,6,3,12,0.30
2013-1-28,50.0,43.8,36.0,48.0,40.5,22.0,96,89,55,29.96,29.81,10,6,19,0.54
2013-1-29,63.0,56.1,39.0,59.0,53.8,38.0,97,92,86,29.83,29.38,12,5,26,3.43
2013-1-30,44.0,34.7,22.0,43.0,32.6,16.0,97,92,77,29.60,29.18,14,7,27,1.24
2013-1-31,22.0,12.6,6.0,17.0,6.4,-6.0,87,76,55,30.17,29.60,14,11,26,0.01
2013-2-1,14.0,7.7,1.0,11.0,0.7,-10.0,87,73,55,30.39,30.17,12,8,26,0.00
2013-2-2,31.0,18.4,10.0,30.0,15.6,5.0,95,88,55,30.23,30.04,9,4,15,0.00
2013-2-3,24.0,17.2,10.0,20.0,11.1,-1.0,92,77,55,30.09,29.98,13,5,21,0.00
2013-2-4,28.0,24.2,20.0,26.0,21.6,10.0,100,90,55,30.07,29.87,11,4,17,0.00
2013-2-5,34.0,24.0,10.0,31.0,20.2,2.0,93,85,55,30.09,29.82,9,4,20,0.00
2013-2-6,37.0,30.7,14.0,30.0,24.0,10.0,94,77,55,30.25,30.09,7,2,15,0.07
2013-2-7,39.0,33.4,32.0,38.0,30.9,18.0,96,91,55,30.14,29.87,6,2,12,0.92
2013-2-8,36.0,30.2,26.0,35.0,28.3,22.0,96,93,86,30.40,29.94,8,5,17,0.30
2013-2-9,34.0,29.0,24.0,28.0,24.5,11.0,95,83,55,30.41,30.10,6,2,13,0.01
2013-2-10,50.0,39.9,32.0,46.0,36.0,26.0,94,86,55,30.10,29.49,13,4,26,0.25
2013-2-11,46.0,34.0,29.0,39.0,25.6,20.0,76,71,55,30.02,29.51,21,15,47,0.01
2013-2-12,29.0,26.4,21.0,25.0,20.7,11.0,90,79,55,30.11,29.94,12,6,22,0.01
2013-2-13,44.0,32.5,20.0,33.0,26.7,18.0,93,80,58,29.94,29.72,9,3,16,0.01
2013-2-14,39.0,37.5,35.0,33.0,29.4,23.0,81,73,58,29.97,29.64,13,7,26,0.00
2013-2-15,36.0,30.1,24.0,31.0,20.2,11.0,89,67,43,30.18,29.97,9,6,19,0.00
2013-2-16,25.0,20.1,13.0,21.0,14.2,5.0,93,78,57,30.22,30.14,9,5,19,0.00
2013-2-17,32.0,22.4,9.0,20.0,7.9,0.0,93,56,31,30.24,30.05,6,2,14,0.00
2013-2-18,53.0,40.3,28.0,45.0,31.1,14.0,91,70,55,30.04,29.40,15,7,27,0.17
2013-2-19,30.0,16.9,13.0,27.0,11.1,6.0,90,78,69,30.19,29.54,17,13,32,0.16
2013-2-20,30.0,19.4,11.0,25.0,14.0,5.0,94,79,61,30.39,30.19,9,5,19,0.00
2013-2-21,31.0,27.0,23.0,27.0,22.3,17.0,93,82,77,30.39,30.03,17,8,28,0.00
2013-2-22,34.0,28.1,24.0,32.0,25.2,22.0,94,89,80,30.03,29.81,14,7,27,0.01
2013-2-23,28.0,25.7,23.0,24.0,19.8,17.0,85,78,66,29.98,29.90,11,7,21,0.01
2013-2-24,40.0,27.4,16.0,32.0,16.8,-99.9,88,72,51,30.16,29.98,6,2,12,0.01
2013-2-25,41.0,32.0,20.0,29.0,22.5,-99.9,91,73,52,30.19,29.98,9,4,17,0.01
2013-2-26,36.0,33.2,31.0,31.0,29.3,27.0,96,86,72,29.98,29.52,20,12,31,0.09
2013-2-27,41.0,35.7,32.0,40.0,34.7,31.0,97,96,95,29.70,29.51,8,4,15,0.36
2013-2-28,39.0,34.1,29.0,38.0,30.9,23.0,97,88,76,30.07,29.69,12,7,20,0.08
2013-3-1,32.0,29.2,27.0,30.0,25.9,23.0,94,87,81,30.19,30.05,11,6,18,0.01
2013-3-2,35.0,29.1,22.0,29.0,23.4,16.0,95,80,58,30.19,30.15,8,5,16,0.01
2013-3-3,38.0,25.5,16.0,26.0,16.7,11.0,94,71,36,30.17,30.08,7,2,13,0.01
2013-3-4,34.0,26.8,17.0,26.0,19.8,13.0,89,75,57,30.14,30.02,10,5,16,0.00
2013-3-5,35.0,31.1,29.0,34.0,28.4,26.0,95,90,74,30.02,29.81,10,8,21,0.02
2013-3-6,40.0,34.3,30.0,37.0,31.1,27.0,96,88,76,30.30,29.98,8,5,16,0.18
2013-3-7,42.0,34.6,28.0,34.0,27.4,23.0,93,76,53,30.42,30.29,6,3,11,0.01
2013-3-8,44.0,33.8,22.0,28.0,25.3,20.0,93,72,48,30.50,30.32,6,2,10,0.01
2013-3-9,47.0,38.8,32.0,35.0,29.9,24.0,87,71,60,30.32,29.84,5,3,15,0.04
2013-3-10,53.0,46.6,42.0,49.0,43.2,34.0,95,88,62,29.86,29.61,8,3,15,0.93
2013-3-11,49.0,39.7,33.0,47.0,37.6,29.0,96,92,86,29.77,29.53,10,6,22,0.11
2013-3-12,36.0,31.7,28.0,30.0,26.0,22.0,92,79,64,30.01,29.77,14,9,24,0.01
2013-3-13,36.0,29.7,25.0,28.0,19.4,10.0,90,67,38,30.33,30.01,11,7,21,0.01
2013-3-14,37.0,29.9,22.0,30.0,21.2,13.0,88,71,40,30.33,30.09,8,3,13,0.00
2013-3-15,45.0,35.5,31.0,39.0,32.0,28.0,94,87,72,30.10,29.76,8,3,15,0.25
2013-3-16,35.0,32.3,30.0,33.0,29.0,25.0,93,88,72,30.12,29.72,12,7,22,0.01
2013-3-17,34.0,31.1,27.0,28.0,22.2,18.0,86,69,61,30.22,30.02,13,8,25,0.01
2013-3-18,35.0,30.5,23.0,32.0,26.0,13.0,93,83,65,30.02,29.61,17,9,32,0.05
2013-3-19,33.0,24.3,17.0,19.0,13.4,10.0,75,64,48,30.09,29.79,17,13,33,0.01
2013-3-20,26.0,21.6,16.0,23.0,12.6,6.0,91,68,52,30.11,30.03,12,9,26,0.00
2013-3-21,39.0,27.0,16.0,31.0,19.0,9.0,90,72,46,30.07,30.01,8,5,17,0.00
2013-3-22,41.0,30.3,19.0,32.0,19.0,14.0,90,64,38,30.09,30.00,8,3,14,0.00
2013-3-23,39.0,32.5,25.0,33.0,23.8,21.0,93,71,50,30.15,30.03,12,4,17,0.00
2013-3-24,35.0,33.8,32.0,30.0,26.5,23.0,84,74,66,30.04,29.67,20,12,35,0.00
2013-3-25,38.0,34.7,32.0,33.0,27.1,24.0,85,74,65,30.07,29.70,16,11,27,0.00
2013-3-26,44.0,38.2,31.0,37.0,28.9,23.0,91,70,47,30.25,30.07,7,4,16,0.00
2013-3-27,45.0,38.8,32.0,34.0,26.3,21.0,87,61,43,30.32,30.24,6,3,19,0.00
2013-3-28,51.0,38.2,29.0,37.0,22.7,20.0,81,56,31,30.35,30.27,9,3,16,0.00
2013-3-29,54.0,41.4,30.0,30.0,24.0,19.0,78,53,31,30.32,30.22,9,3,15,0.00
2013-3-30,58.0,44.6,28.0,41.0,30.5,-99.9,88,63,41,30.25,29.84,10,4,18,0.00
2013-3-31,57.0,47.2,39.0,44.0,36.6,26.0,92,68,42,29.87,29.68,15,8,31,0.00
2013-4-1,43.0,36.9,32.0,34.0,21.7,14.0,84,55,35,30.19,29.87,9,6,21,0.00
2013-4-2,45.0,36.0,26.0,32.0,18.3,10.0,88,51,26,30.31,30.18,11,5,20,0.00
2013-4-3,41.0,33.7,26.0,26.0,18.4,14.0,86,55,37,30.46,30.31,9,4,16,0.00
2013-4-4,58.0,43.1,27.0,35.0,23.7,17.0,79,50,28,30.33,29.97,10,4,17,0.00
2013-4-5,50.0,40.0,36.0,37.0,26.5,20.0,79,59,46,30.23,29.99,13,8,22,0.00
2013-4-6,69.0,52.6,36.0,47.0,33.2,24.0,74,50,30,30.16,29.57,17,7,31,0.07
2013-4-7,58.0,47.5,40.0,49.0,38.3,32.0,85,71,49,29.97,29.59,15,8,23,0.06
2013-4-8,66.0,50.8,41.0,54.0,42.1,-99.9,94,75,59,29.98,29.57,21,8,44,0.48
2013-4-9,53.0,42.0,39.0,46.0,39.2,37.0,94,91,78,30.01,29.83,14,8,26,0.37
2013-4-10,40.0,39.2,37.0,38.0,37.2,35.0,94,93,92,29.99,29.84,17,11,28,0.51
2013-4-11,49.0,42.1,37.0,48.0,40.9,35.0,97,95,94,29.90,29.56,15,7,27,0.79
2013-4-12,45.0,39.7,36.0,39.0,34.4,30.0,94,81,69,29.84,29.56,13,8,24,0.05
2013-4-13,44.0,39.1,34.0,35.0,29.3,25.0,85,69,52,29.99,29.83,14,8,25,0.00
2013-4-14,70.0,50.7,38.0,51.0,37.2,27.0,74,61,49,30.01,29.66,13,7,21,0.00
2013-4-15,65.0,56.9,46.0,53.0,48.9,43.0,93,75,51,29.96,29.66,14,7,28,0.32
2013-4-16,56.0,46.0,41.0,45.0,36.9,32.0,94,72,45,30.27,29.93,9,4,16,0.27
2013-4-17,48.0,43.7,42.0,47.0,38.8,33.0,96,83,68,30.28,29.78,14,8,24,1.97
2013-4-18,63.0,53.9,43.0,59.0,51.6,35.0,98,92,78,29.81,29.41,18,7,35,4.29
2013-4-19,42.0,37.5,34.0,35.0,30.1,28.0,89,75,65,29.91,29.47,19,13,35,0.03
2013-4-20,47.0,37.5,32.0,33.0,24.9,17.0,90,62,34,30.44,29.91,11,6,20,0.01
2013-4-21,55.0,43.6,31.0,30.0,24.7,18.0,76,49,32,30.53,30.33,11,4,21,0.00
2013-4-22,67.0,54.3,43.0,38.0,32.7,29.0,61,45,30,30.33,30.03,11,4,19,0.00
2013-4-23,59.0,50.3,38.0,53.0,43.4,35.0,93,79,48,30.03,29.86,9,4,16,0.74
2013-4-24,50.0,42.9,36.0,39.0,32.1,26.0,94,69,42,30.11,29.92,12,6,21,0.44
2013-4-25,51.0,44.9,38.0,38.0,32.4,29.0,89,62,45,30.32,30.04,15,6,27,0.06
2013-4-26,67.0,53.1,36.0,45.0,37.5,29.0,79,57,43,30.34,30.22,12,5,25,0.02
2013-4-27,67.0,57.5,45.0,47.0,42.4,38.0,87,60,35,30.28,29.99,10,4,18,0.00
2013-4-28,63.0,56.2,50.0,54.0,49.4,41.0,90,78,62,29.99,29.81,8,3,14,0.02
2013-4-29,74.0,62.5,48.0,55.0,51.0,46.0,94,69,46,29.89,29.75,8,4,15,0.01
2013-4-30,86.0,72.1,61.0,61.0,56.4,52.0,77,60,34,29.91,29.75,11,6,23,0.00
2013-5-1,86.0,75.6,64.0,59.0,54.7,51.0,75,51,31,30.09,29.90,8,3,15,0.00
2013-5-2,67.0,47.6,42.0,55.0,40.3,36.0,83,76,63,30.20,30.09,17,11,31,0.04
2013-5-3,47.0,42.1,39.0,44.0,39.3,35.0,93,90,82,30.16,29.96,16,9,24,0.02
2013-5-4,69.0,56.9,47.0,49.0,45.9,43.0,92,69,48,30.03,29.95,12,5,19,0.01
2013-5-5,66.0,57.0,48.0,49.0,43.1,40.0,90,61,45,30.02,29.95,13,6,22,0.00
2013-5-6,68.0,58.7,49.0,44.0,39.7,35.0,69,51,32,30.02,29.96,11,5,22,0.00
2013-5-7,74.0,60.6,46.0,45.0,41.3,37.0,84,52,31,30.04,29.96,8,4,13,0.00
2013-5-8,77.0,63.5,46.0,50.0,44.7,39.0,89,55,27,30.02,29.94,9,3,15,0.00
2013-5-9,76.0,60.6,46.0,59.0,49.3,43.0,93,68,45,29.95,29.83,10,2,16,0.58
2013-5-10,47.0,44.4,43.0,45.0,40.4,-99.9,95,91,81,29.98,29.76,10,5,17,0.75
2013-5-11,58.0,50.4,45.0,50.0,38.1,-99.9,91,68,36,30.02,29.82,11,5,25,0.01
2013-5-12,55.0,45.6,38.0,35.0,29.4,24.0,76,54,34,30.10,30.02,9,5,20,0.00
2013-5-13,59.0,49.0,33.0,38.0,33.1,25.0,91,57,28,30.18,30.00,10,4,17,0.00
2013-5-14,91.0,69.4,53.0,59.0,47.4,-99.9,67,48,22,30.00,29.61,10,5,20,0.00
2013-5-15,84.0,74.3,59.0,59.0,50.7,46.0,73,45,29,29.80,29.58,11,5,23,0.00
2013-5-16,81.0,60.2,53.0,54.0,27.8,-99.9,86,54,24,29.96,29.78,10,3,18,0.00
2013-5-17,69.0,59.0,52.0,52.0,41.6,-99.9,72,60,52,30.03,29.93,11,4,17,0.00
2013-5-18,80.0,68.3,54.0,62.0,56.0,46.0,85,66,50,30.04,29.93,7,3,15,0.00
2013-5-19,89.0,73.1,58.0,66.0,60.6,54.0,90,67,42,29.93,29.73,10,2,21,0.00
2013-5-20,90.0,79.8,65.0,68.0,61.1,53.0,93,56,30,29.75,29.65,14,5,33,0.79
2013-5-21,81.0,71.4,63.0,67.0,62.4,60.0,95,75,50,29.72,29.62,12,4,29,1.05
2013-5-22,72.0,65.9,53.0,66.0,60.8,50.0,96,85,59,29.74,29.59,10,3,19,1.91
2013-5-23,53.0,47.8,42.0,51.0,42.1,34.0,95,81,63,30.29,29.74,18,10,33,0.21
2013-5-24,54.0,47.4,39.0,38.0,33.9,27.0,83,61,41,30.43,30.29,11,6,20,0.00
2013-5-25,56.0,49.2,38.0,43.0,38.2,34.0,92,66,50,30.40,30.29,6,2,11,0.00
2013-5-26,68.0,55.3,41.0,48.0,43.1,36.0,87,65,45,30.31,30.12,9,3,15,0.00
2013-5-27,61.0,56.9,54.0,56.0,52.7,46.0,92,87,71,30.13,29.85,8,5,16,0.01
2013-5-28,76.0,67.2,55.0,69.0,63.5,53.0,97,88,74,29.87,29.68,9,3,23,0.22
2013-5-29,86.0,73.5,63.0,69.0,64.0,47.0,95,74,52,29.93,29.74,7,2,15,0.14
2013-5-30,82.0,75.4,64.0,71.0,65.6,47.0,94,72,55,29.89,29.75,4,0,8,0.55
2013-5-31,77.0,70.7,63.0,67.0,64.0,48.0,95,80,55,29.84,29.68,0,0,0,0.24
2013-6-1,75.0,68.2,62.0,69.0,62.4,52.0,95,82,55,29.71,29.63,0,0,0,0.49
2013-6-2,62.0,53.0,43.0,60.0,49.8,41.0,94,89,77,30.03,29.67,9,2,15,0.18
2013-6-3,67.0,54.4,40.0,47.0,41.4,34.0,96,66,36,30.11,30.03,9,2,14,0.01
2013-6-4,72.0,58.8,45.0,49.0,44.4,40.0,92,62,31,30.14,30.08,9,4,15,0.00
2013-6-5,70.0,60.5,54.0,52.0,48.2,45.0,81,65,45,30.10,29.92,9,4,17,0.01
2013-6-6,61.0,56.4,52.0,54.0,50.0,41.0,90,79,55,29.93,29.87,11,5,17,0.18
2013-6-7,65.0,57.2,49.0,51.0,46.2,36.0,85,68,38,29.94,29.88,11,5,17,0.01
2013-6-8,73.0,60.3,44.0,50.0,43.1,37.0,91,57,30,30.00,29.89,8,3,14,0.00
2013-6-9,83.0,69.5,55.0,60.0,53.6,-99.9,82,60,41,30.00,29.78,7,2,11,0.00
2013-6-10,75.0,68.1,61.0,66.0,62.9,47.0,95,84,55,29.84,29.71,7,2,12,0.23
2013-6-11,84.0,71.9,57.0,66.0,61.0,44.0,96,71,47,29.89,29.77,8,2,18,0.01
2013-6-12,86.0,71.1,62.0,72.0,64.2,60.0,94,79,60,29.89,29.56,12,3,25,0.32
2013-6-13,69.0,64.1,58.0,61.0,54.5,50.0,96,72,55,30.03,29.60,14,8,24,0.33
2013-6-14,76.0,63.6,56.0,55.0,51.4,48.0,78,66,45,30.12,30.01,9,5,16,0.00
2013-6-15,82.0,68.7,56.0,68.0,60.6,49.0,92,76,55,30.05,29.82,9,1,23,0.13
2013-6-16,84.0,76.2,69.0,67.0,63.1,59.0,81,65,45,29.88,29.83,13,5,28,0.04
2013-6-17,88.0,78.5,59.0,61.0,55.7,51.0,88,49,29,29.91,29.80,9,4,20,0.07
2013-6-18,67.0,59.7,55.0,56.0,52.3,47.0,100,78,58,30.06,29.89,13,8,20,0.09
2013-6-19,73.0,64.0,51.0,54.0,46.5,36.0,89,57,32,30.14,30.05,9,4,15,0.01
2013-6-20,84.0,74.2,54.0,64.0,58.4,44.0,89,59,47,30.13,30.07,9,2,15,0.00
2013-6-22,80.0,76.4,70.0,72.0,67.9,65.0,93,75,65,30.06,29.92,8,3,15,0.05
2013-6-23,90.0,76.5,67.0,73.0,67.2,63.0,87,74,54,30.00,29.88,10,2,18,0.01
2013-6-24,86.0,74.4,67.0,72.0,66.9,64.0,91,79,53,30.02,29.82,9,3,19,0.13
2013-6-25,87.0,74.8,66.0,75.0,68.7,63.0,94,82,55,29.94,29.77,7,2,21,0.07
2013-6-26,79.0,71.6,66.0,70.0,66.5,64.0,96,84,70,29.83,29.68,9,2,13,1.97
2013-6-27,89.0,74.6,63.0,73.0,66.7,61.0,96,79,45,29.75,29.64,11,3,19,0.64
2013-6-28,81.0,73.8,67.0,65.0,61.4,58.0,85,66,46,29.66,29.56,10,4,25,0.05
2013-6-29,69.0,65.4,64.0,63.0,59.6,55.0,91,82,66,29.74,29.56,13,7,23,0.04
2013-6-30,73.0,66.8,62.0,59.0,54.1,43.0,87,66,39,29.96,29.74,16,8,26,0.00
2013-7-1,73.0,66.8,60.0,55.0,52.2,46.0,78,60,47,30.05,29.96,14,8,24,0.00
2013-7-2,66.0,63.1,61.0,57.0,53.0,50.0,87,70,58,30.06,30.02,12,7,19,0.01
2013-7-3,72.0,64.5,60.0,64.0,60.1,57.0,92,86,74,30.05,29.99,6,2,11,0.03
2013-7-4,83.0,71.4,56.0,64.0,60.8,54.0,95,71,51,30.08,30.00,6,1,11,0.03
2013-7-5,86.0,74.7,61.0,66.0,61.6,53.0,92,66,35,30.06,29.97,7,1,17,0.00
2013-7-6,85.0,74.3,65.0,68.0,64.8,62.0,92,73,50,30.03,29.94,2,0,8,0.00
2013-7-7,88.0,79.2,71.0,72.0,67.8,65.0,85,69,52,29.98,29.90,6,2,13,0.00
2013-7-8,86.0,76.9,70.0,76.0,69.2,-99.9,94,80,68,30.00,29.88,9,3,21,0.40
2013-7-9,85.0,79.8,73.0,76.0,73.2,70.0,95,81,69,29.94,29.81,12,3,22,0.01
2013-7-10,85.0,77.1,63.0,75.0,65.1,-99.9,91,70,51,29.97,29.79,9,4,16,0.00
2013-7-11,79.0,69.6,60.0,61.0,54.7,48.0,91,63,37,30.08,29.97,9,4,17,0.00
2013-7-12,81.0,69.1,54.0,59.0,54.6,51.0,91,64,38,30.13,30.06,8,2,14,0.00
2013-7-13,82.0,73.4,59.0,63.0,58.6,52.0,92,63,37,30.14,30.07,9,4,17,0.00
2013-7-14,86.0,79.0,72.0,68.0,66.3,62.0,81,66,51,30.18,30.11,9,4,15,0.00
2013-7-15,90.0,80.0,72.0,75.0,71.1,67.0,88,75,57,30.22,30.17,8,2,13,0.01
2013-7-16,93.0,82.6,73.0,74.0,72.1,70.0,92,72,52,30.27,30.19,6,2,12,0.01
2013-7-17,94.0,85.3,75.0,74.0,71.6,70.0,84,65,47,30.27,30.12,8,3,15,0.00
2013-7-18,94.0,85.1,78.0,75.0,72.6,69.0,83,68,46,30.14,29.91,9,3,17,0.00
2013-7-19,94.0,86.7,72.0,74.0,70.7,66.0,90,60,41,29.91,29.70,16,8,32,0.33
2013-7-20,89.0,77.5,70.0,70.0,63.8,-99.9,90,67,34,29.92,29.75,8,3,13,0.33
2013-7-21,89.0,76.6,66.0,68.0,64.6,62.0,90,69,42,29.92,29.80,8,2,14,0.06
2013-7-22,89.0,78.5,68.0,69.0,67.0,62.0,92,70,45,29.84,29.69,13,2,27,0.00
2013-7-23,80.0,70.9,64.0,69.0,60.6,55.0,83,70,54,29.95,29.63,14,7,27,0.03
2013-7-24,69.0,65.0,57.0,55.0,51.3,48.0,84,62,48,30.04,29.94,10,6,18,0.01
2013-7-25,83.0,68.5,53.0,59.0,54.0,50.0,92,63,37,30.09,30.01,5,1,9,0.00
2013-7-26,72.0,67.2,63.0,64.0,60.8,54.0,95,81,55,30.01,29.85,7,1,19,0.18
2013-7-27,64.0,60.5,58.0,62.0,52.5,46.0,92,76,57,29.89,29.83,8,4,18,0.03
2013-7-28,70.0,60.4,54.0,51.0,49.0,46.0,85,67,48,30.00,29.85,10,5,18,0.01
2013-7-29,73.0,65.0,58.0,58.0,54.8,51.0,84,70,53,30.16,30.00,7,4,13,0.00
2013-7-30,76.0,65.9,55.0,66.0,59.0,52.0,100,80,53,30.17,30.06,2,0,6,0.05
2013-7-31,74.0,67.9,63.0,67.0,64.1,62.0,96,88,73,30.05,29.91,5,1,23,0.39
2013-8-1,80.0,69.3,61.0,62.0,57.6,52.0,95,70,41,29.96,29.91,7,3,15,0.01
2013-8-2,84.0,69.9,61.0,69.0,62.9,55.0,95,80,55,29.91,29.81,7,2,16,0.74
2013-8-3,77.0,70.8,61.0,62.0,56.0,51.0,86,62,41,30.08,29.91,10,4,15,0.00
2013-8-4,72.0,65.9,58.0,62.0,56.7,54.0,91,73,58,30.18,30.08,9,4,17,0.00
2013-8-5,74.0,65.0,56.0,63.0,57.9,53.0,92,79,55,30.11,29.86,8,1,18,0.05
2013-8-6,85.0,74.4,67.0,71.0,67.2,63.0,92,79,60,29.87,29.79,7,2,13,0.02
2013-8-7,88.0,77.1,69.0,73.0,68.8,62.0,90,77,55,29.92,29.75,12,5,21,0.02
2013-8-8,75.0,70.4,65.0,63.0,57.6,50.0,90,66,44,30.00,29.91,11,6,19,0.00
2013-8-9,82.0,72.2,58.0,67.0,60.2,54.0,91,68,51,30.00,29.93,6,2,16,0.00
2013-8-10,79.0,72.4,64.0,66.0,58.9,53.0,93,64,45,30.09,29.99,7,3,14,0.00
2013-8-11,81.0,69.9,58.0,67.0,58.2,55.0,92,69,48,30.11,30.01,6,1,12,0.02
2013-8-21,89.0,78.6,65.0,68.0,65.2,62.0,90,66,45,30.05,29.92,8,4,17,0.00
2013-8-22,79.0,71.8,67.0,69.0,66.7,64.0,92,84,68,30.11,29.98,11,3,26,0.23
2013-8-23,79.0,70.1,61.0,64.0,56.7,47.0,95,67,33,30.15,30.07,9,4,15,0.01
2013-8-24,89.0,71.2,57.0,63.0,56.0,-99.9,94,65,39,30.23,30.15,6,1,10,0.01
2013-8-25,89.0,77.5,66.0,69.0,62.4,55.0,69,60,51,30.22,30.09,8,3,18,0.00
2013-8-26,91.0,80.5,72.0,73.0,67.9,62.0,78,66,52,30.11,29.96,9,4,20,0.00
2013-8-27,93.0,81.9,77.0,73.0,71.0,70.0,80,71,51,29.97,29.83,9,5,18,0.00
2013-10-18,49.0,44.2,38.0,48.0,39.3,36.0,100,83,70,29.96,29.83,11,4,19,0.01
2013-10-19,52.0,45.2,42.0,40.0,34.9,-99.9,85,72,50,29.93,29.78,13,4,25,0.01
2013-10-20,62.0,50.1,36.0,48.0,42.0,34.0,93,74,55,29.88,29.71,8,1,26,0.02
2013-10-21,55.0,45.8,33.0,48.0,35.5,25.0,79,67,47,29.97,29.77,11,6,24,0.01
2013-10-22,41.0,36.2,30.0,36.0,30.3,25.0,90,79,57,29.99,29.92,7,2,13,0.00
2013-10-23,44.0,39.0,34.0,34.0,29.7,25.0,90,70,47,30.02,29.91,9,5,21,0.01
2013-10-24,42.0,38.9,35.0,36.0,28.1,23.0,87,66,49,30.29,30.01,8,5,17,0.01
2013-10-25,50.0,44.8,31.0,31.0,28.3,25.0,78,53,43,30.41,30.05,12,6,26,0.00
2013-10-26,49.0,45.8,43.0,35.0,30.5,28.0,59,55,50,30.03,29.84,11,8,23,0.00